createdAt,value
2023-01-05T00:01:53.771Z,97987.63
2023-01-05T00:04:21.879Z,98000.19
2023-01-05T00:06:49.701Z,97988.84
2023-01-05T00:09:19.196Z,97986.81
2023-01-05T00:12:05.389Z,97986.00
2023-01-05T00:14:52.972Z,97994.84
2023-01-05T00:17:42.365Z,97988.47
2023-01-05T00:20:40.214Z,97988.00
2023-01-05T00:23:09.142Z,97977.31
2023-01-05T00:25:40.281Z,97985.66
2023-01-05T00:28:08.575Z,97989.69
2023-01-05T00:30:45.912Z,97975.28
2023-01-05T00:33:16.995Z,97982.66
2023-01-05T00:35:44.966Z,97966.75
2023-01-05T00:38:12.920Z,97966.44
2023-01-05T00:40:40.822Z,97966.09
2023-01-05T00:43:08.649Z,97962.13
2023-01-05T00:45:36.485Z,97970.97
2023-01-05T00:48:04.713Z,97970.28
2023-01-05T00:50:32.543Z,97969.72
2023-01-05T00:53:02.291Z,97972.28
2023-01-05T00:55:30.024Z,97968.47
2023-01-05T00:57:57.863Z,97961.25
2023-01-05T01:00:25.665Z,97964.03
2023-01-05T01:02:53.493Z,97977.25
2023-01-05T01:05:21.462Z,97967.22
2023-01-05T01:07:49.777Z,97970.00
2023-01-05T01:10:17.866Z,97981.22
2023-01-05T01:12:45.619Z,97977.53
2023-01-05T01:15:13.411Z,97985.41
2023-01-05T01:17:43.126Z,97985.69
2023-01-05T01:20:11.111Z,97980.81
2023-01-05T01:22:38.905Z,97966.63
2023-01-05T01:25:08.913Z,97960.88
2023-01-05T01:27:36.785Z,97975.41
2023-01-05T01:30:05.516Z,97956.91
2023-01-05T01:32:33.226Z,97967.91
2023-01-05T01:35:02.292Z,97966.56
2023-01-05T01:37:30.143Z,97962.19
2023-01-05T01:39:58.660Z,97965.56
2023-01-05T01:42:26.928Z,97972.56
2023-01-05T01:45:13.960Z,97965.56
2023-01-05T01:47:53.999Z,97957.69
2023-01-05T01:50:27.907Z,97961.03
2023-01-05T01:53:06.555Z,97975.25
2023-01-05T01:55:36.233Z,97971.19
2023-01-05T01:58:08.369Z,97965.50
2023-01-05T02:00:36.130Z,97956.16
2023-01-05T02:03:05.943Z,97951.56
2023-01-05T02:05:34.654Z,97939.38
2023-01-05T02:08:02.704Z,97941.03
2023-01-05T02:10:51.739Z,97944.16
2023-01-05T02:13:37.330Z,97936.34
2023-01-05T02:16:46.618Z,97935.81
2023-01-05T02:19:42.958Z,97937.22
2023-01-05T02:23:16.394Z,97961.41
2023-01-05T02:26:12.118Z,97930.53
2023-01-05T02:29:04.013Z,97926.50
2023-01-05T02:31:53.711Z,97932.50
2023-01-05T02:34:49.968Z,97933.34
2023-01-05T02:37:52.811Z,97942.69
2023-01-05T02:40:39.341Z,97936.84
2023-01-05T02:43:09.854Z,97947.84
2023-01-05T02:45:37.693Z,97932.47
2023-01-05T02:48:05.677Z,97945.44
2023-01-05T02:50:49.658Z,97924.72
2023-01-05T02:53:32.967Z,97925.59
2023-01-05T02:56:09.053Z,97920.13
2023-01-05T02:58:58.209Z,97920.81
2023-01-05T03:01:41.779Z,97919.44
2023-01-05T03:04:19.795Z,97925.59
2023-01-05T03:06:58.479Z,97921.78
2023-01-05T03:09:36.862Z,97935.75
2023-01-05T03:12:53.415Z,97930.41
2023-01-05T03:15:32.926Z,97935.00
2023-01-05T03:18:07.356Z,97941.69
2023-01-05T03:20:44.035Z,97942.06
2023-01-05T03:23:34.379Z,97934.69
2023-01-05T03:26:20.838Z,97930.41
2023-01-05T03:29:14.941Z,97938.44
2023-01-05T03:32:14.776Z,97926.47
2023-01-05T03:35:18.148Z,97942.06
2023-01-05T03:37:59.715Z,97959.44
2023-01-05T03:40:32.242Z,97962.06
2023-01-05T03:43:01.212Z,97960.16
2023-01-05T03:45:46.010Z,97951.53
2023-01-05T03:48:22.182Z,97952.84
2023-01-05T03:50:50.453Z,97938.31
2023-01-05T03:53:20.233Z,97943.53
2023-01-05T03:55:48.040Z,97935.50
2023-01-05T03:58:15.854Z,97935.09
2023-01-05T04:00:48.000Z,97954.25
2023-01-05T04:03:19.080Z,97941.56
2023-01-05T04:05:47.162Z,97938.91
2023-01-05T04:08:16.926Z,97959.13
2023-01-05T04:10:45.342Z,97944.88
2023-01-05T04:13:14.759Z,97941.56
2023-01-05T04:15:44.168Z,97937.66
2023-01-05T04:18:12.843Z,97946.84
2023-01-05T04:20:40.652Z,97954.13
2023-01-05T04:23:09.085Z,97952.78
2023-01-05T04:25:37.476Z,97942.38
2023-01-05T04:28:15.971Z,97950.69
2023-01-05T04:30:45.242Z,97953.84
2023-01-05T04:33:13.739Z,97951.81
2023-01-05T04:35:41.648Z,97954.44
2023-01-05T04:38:09.756Z,97967.19
2023-01-05T04:40:37.762Z,97967.13
2023-01-05T04:43:06.599Z,97969.97
2023-01-05T04:45:35.242Z,97974.91
2023-01-05T04:48:03.445Z,97977.53
2023-01-05T04:50:31.697Z,97969.06
2023-01-05T04:52:59.917Z,97987.94
2023-01-05T04:55:30.271Z,97990.91
2023-01-05T04:57:59.633Z,97992.28
2023-01-05T05:00:28.518Z,97998.47
2023-01-05T05:02:56.332Z,97994.25
2023-01-05T05:05:24.175Z,97994.34
2023-01-05T05:07:54.945Z,97990.38
2023-01-05T05:10:27.940Z,97993.09
2023-01-05T05:12:55.914Z,97986.00
2023-01-05T05:15:24.411Z,98004.00
2023-01-05T05:17:52.204Z,98019.31
2023-01-05T05:20:20.002Z,98003.91
2023-01-05T05:22:49.050Z,98003.09
2023-01-05T05:25:19.388Z,98005.78
2023-01-05T05:27:49.035Z,98006.16
2023-01-05T05:30:16.946Z,98020.50
2023-01-05T05:32:44.827Z,98016.47
2023-01-05T05:35:12.603Z,98015.00
2023-01-05T05:37:40.358Z,98015.19
2023-01-05T05:40:09.108Z,98014.03
2023-01-05T05:42:36.841Z,98017.53
2023-01-05T05:45:05.380Z,98025.22
2023-01-05T05:47:33.194Z,98028.72
2023-01-05T05:50:00.942Z,98060.44
2023-01-05T05:52:28.725Z,98045.06
2023-01-05T05:54:56.614Z,98051.09
2023-01-05T05:57:24.374Z,98045.59
2023-01-05T05:59:52.128Z,98046.06
2023-01-05T06:02:19.994Z,98066.09
2023-01-05T06:04:47.880Z,98056.44
2023-01-05T06:07:15.692Z,98062.09
2023-01-05T06:09:43.428Z,98063.63
2023-01-05T06:12:11.259Z,98085.06
2023-01-05T06:14:39.173Z,98088.16
2023-01-05T06:17:06.889Z,98095.19
2023-01-05T06:19:34.652Z,98086.50
2023-01-05T06:22:02.404Z,98089.19
2023-01-05T06:24:30.087Z,98101.41
2023-01-05T06:26:57.948Z,98103.75
2023-01-05T06:29:25.682Z,98100.75
2023-01-05T06:31:53.470Z,98114.31
2023-01-05T06:34:21.230Z,98112.44
2023-01-05T06:36:49.023Z,98108.06
2023-01-05T06:39:16.818Z,98109.25
2023-01-05T06:41:44.534Z,98115.44
2023-01-05T06:44:12.360Z,98113.09
2023-01-05T06:46:41.024Z,98114.94
2023-01-05T06:49:12.243Z,98118.16
2023-01-05T06:51:40.497Z,98118.47
2023-01-05T06:54:08.650Z,98121.13
2023-01-05T06:56:36.669Z,98121.59
2023-01-05T06:59:04.874Z,98114.38
2023-01-05T07:01:32.898Z,98133.78
2023-01-05T07:04:00.925Z,98136.88
2023-01-05T07:06:28.828Z,98137.16
2023-01-05T07:08:57.014Z,98137.63
2023-01-05T07:11:25.089Z,98140.28
2023-01-05T07:13:52.913Z,98139.84
2023-01-05T07:16:20.746Z,98131.97
2023-01-05T07:18:49.390Z,98136.81
2023-01-05T07:21:17.452Z,98141.16
2023-01-05T07:23:46.511Z,98138.81
2023-01-05T07:26:15.118Z,98143.63
2023-01-05T07:28:43.034Z,98139.09
2023-01-05T07:31:10.836Z,98136.19
2023-01-05T07:33:40.252Z,98127.09
2023-01-05T07:36:08.835Z,98138.31
2023-01-05T07:38:36.684Z,98136.31
2023-01-05T07:41:04.599Z,98131.31
2023-01-05T07:43:32.374Z,98143.13
2023-01-05T07:46:01.796Z,98145.66
2023-01-05T07:48:30.061Z,98150.38
2023-01-05T07:51:05.676Z,98144.00
2023-01-05T07:53:43.895Z,98152.03
2023-01-05T07:56:13.732Z,98159.69
2023-01-05T07:58:41.919Z,98167.03
2023-01-05T08:01:12.995Z,98170.38
2023-01-05T08:03:41.532Z,98183.94
2023-01-05T08:06:19.076Z,98182.59
2023-01-05T08:08:47.991Z,98176.91
2023-01-05T08:11:18.435Z,98175.25
2023-01-05T08:14:05.111Z,98187.84
2023-01-05T08:16:34.073Z,98183.66
2023-01-05T08:19:04.201Z,98190.34
2023-01-05T08:21:34.232Z,98188.41
2023-01-05T08:24:02.302Z,98200.03
2023-01-05T08:26:30.134Z,98201.63
2023-01-05T08:28:58.286Z,98204.81
2023-01-05T08:31:29.851Z,98215.16
2023-01-05T08:34:02.489Z,98213.44
2023-01-05T08:36:31.650Z,98213.34
2023-01-05T08:39:01.630Z,98209.19
2023-01-05T08:41:35.760Z,98206.53
2023-01-05T08:44:13.363Z,98212.34
2023-01-05T08:46:41.185Z,98210.69
2023-01-05T08:49:09.865Z,98209.91
2023-01-05T08:51:38.485Z,98220.28
2023-01-05T08:54:06.377Z,98228.63
2023-01-05T08:56:38.545Z,98234.84
2023-01-05T08:59:07.294Z,98246.94
2023-01-05T09:01:36.905Z,98249.28
2023-01-05T09:04:05.103Z,98249.34
2023-01-05T09:06:32.847Z,98251.72
2023-01-05T09:09:00.615Z,98255.38
2023-01-05T09:11:28.605Z,98266.94
2023-01-05T09:14:00.225Z,98247.03
2023-01-05T09:17:05.100Z,98266.56
2023-01-05T09:19:20.021Z,98265.09
2023-01-05T09:21:47.865Z,98271.09
2023-01-05T09:24:15.830Z,98273.13
2023-01-05T09:26:48.323Z,98274.66
2023-01-05T09:29:18.030Z,98279.44
2023-01-05T09:31:45.944Z,98271.47
2023-01-05T09:34:14.027Z,98277.22
2023-01-05T09:36:42.957Z,98288.66
2023-01-05T09:39:10.971Z,98292.47
2023-01-05T09:41:59.065Z,98293.56
2023-01-05T10:11:36.856Z,98294.81
2023-01-05T10:14:16.214Z,98296.53
2023-01-05T10:16:45.730Z,98297.19
2023-01-05T10:19:20.461Z,98290.03
2023-01-05T10:22:15.961Z,98280.00
2023-01-05T10:25:00.178Z,98282.84
2023-01-05T10:27:33.396Z,98282.69
2023-01-05T10:30:21.823Z,98281.97
2023-01-05T10:33:25.565Z,98290.19
2023-01-05T10:36:28.044Z,98282.06
2023-01-05T10:44:04.951Z,98280.47
2023-01-05T10:46:40.244Z,98279.66
2023-01-05T10:49:21.085Z,98278.00
2023-01-05T10:51:56.266Z,98269.97
2023-01-05T10:54:50.938Z,98268.78
2023-01-05T10:57:35.931Z,98268.78
2023-01-05T11:00:20.252Z,98274.13
2023-01-05T11:03:16.783Z,98278.66
2023-01-05T11:05:48.178Z,98274.66
2023-01-05T11:08:18.986Z,98289.38
2023-01-05T11:11:00.540Z,98291.41
2023-01-05T11:13:39.581Z,98294.56
2023-01-05T11:16:24.050Z,98277.50
2023-01-05T11:19:07.729Z,98289.31
2023-01-05T11:21:39.410Z,98281.97
2023-01-05T11:24:32.847Z,98288.19
2023-01-05T11:27:24.123Z,98281.84
2023-01-05T11:30:14.885Z,98280.84
2023-01-05T11:32:44.196Z,98276.66
2023-01-05T11:35:36.432Z,98279.84
2023-01-05T11:38:04.401Z,98280.19
2023-01-05T11:40:35.940Z,98279.19
2023-01-05T11:43:12.056Z,98287.19
2023-01-05T11:45:53.241Z,98285.34
2023-01-05T11:48:26.127Z,98278.50
2023-01-05T11:50:56.605Z,98279.81
2023-01-05T11:53:33.011Z,98287.41
2023-01-05T11:56:07.592Z,98280.78
2023-01-05T11:58:46.307Z,98271.75
2023-01-05T12:01:50.487Z,98269.78
2023-01-05T12:04:49.035Z,98266.97
2023-01-05T12:07:36.373Z,98274.91
2023-01-05T12:10:55.473Z,98271.34
2023-01-05T12:13:53.209Z,98264.56
2023-01-05T12:16:49.441Z,98272.09
2023-01-05T12:19:46.218Z,98273.78
2023-01-05T12:22:13.563Z,98265.75
2023-01-05T12:24:49.852Z,98274.09
2023-01-05T12:27:52.310Z,98281.63
2023-01-05T12:33:02.998Z,98278.31
2023-01-05T12:34:08.504Z,98283.94
2023-01-05T12:37:26.087Z,98287.72
2023-01-05T12:39:56.161Z,98283.72
2023-01-05T12:43:12.955Z,98288.34
2023-01-05T12:46:29.677Z,98286.72
2023-01-05T12:49:06.146Z,98302.50
2023-01-05T12:51:48.945Z,98296.28
2023-01-05T12:54:38.129Z,98279.94
2023-01-05T12:57:18.797Z,98278.63
2023-01-05T13:00:04.949Z,98276.81
2023-01-05T13:02:37.129Z,98282.31
2023-01-05T13:05:27.872Z,98284.03
2023-01-05T13:08:15.891Z,98284.69
2023-01-05T13:11:02.039Z,98280.47
2023-01-05T13:13:51.261Z,98296.53
2023-01-05T13:16:40.705Z,98272.47
2023-01-05T13:19:28.175Z,98269.47
2023-01-05T13:21:57.559Z,98280.97
2023-01-05T13:24:50.258Z,98273.28
2023-01-05T13:27:18.246Z,98274.81
2023-01-05T13:29:54.287Z,98282.00
2023-01-05T13:32:42.889Z,98290.03
2023-01-05T13:35:27.418Z,98287.72
2023-01-05T13:38:14.872Z,98291.88
2023-01-05T13:40:51.602Z,98293.72
2023-01-05T13:43:49.743Z,98285.84
2023-01-05T13:46:31.389Z,98291.22
2023-01-05T13:49:35.831Z,98296.06
2023-01-05T13:53:00.985Z,98293.72
2023-01-05T13:55:30.056Z,98290.03
2023-01-05T13:57:58.349Z,98294.91
2023-01-05T14:00:32.689Z,98301.72
2023-01-05T14:03:13.808Z,98295.69
2023-01-05T14:06:00.747Z,98294.34
2023-01-05T14:08:34.446Z,98299.56
2023-01-05T14:11:19.713Z,98309.44
2023-01-05T14:13:59.835Z,98310.81
2023-01-05T14:16:37.389Z,98317.34
2023-01-05T14:19:32.910Z,98308.97
2023-01-05T14:22:19.547Z,98321.69
2023-01-05T14:24:50.132Z,98323.16
2023-01-05T14:27:23.517Z,98326.38
2023-01-05T14:29:53.711Z,98328.03
2023-01-05T14:32:34.038Z,98327.50
2023-01-05T14:35:35.847Z,98322.53
2023-01-05T14:38:22.563Z,98332.56
2023-01-05T14:40:56.091Z,98330.06
2023-01-05T14:43:34.450Z,98328.38
2023-01-05T14:46:14.824Z,98332.88
2023-01-05T14:49:06.557Z,98329.69
2023-01-05T14:51:35.593Z,98338.09
2023-01-05T14:54:05.519Z,98337.41
2023-01-05T14:56:36.540Z,98336.88
2023-01-05T14:59:25.334Z,98340.06
2023-01-05T15:01:58.205Z,98332.56
2023-01-05T15:04:38.876Z,98339.56
2023-01-05T15:07:47.726Z,98336.88
2023-01-05T15:10:55.592Z,98330.03
2023-01-05T15:14:26.551Z,98342.91
2023-01-05T15:17:31.881Z,98333.06
2023-01-05T15:20:48.804Z,98337.72
2023-01-05T15:26:32.524Z,98339.75
2023-01-05T15:29:27.366Z,98338.22
2023-01-05T15:32:10.753Z,98337.06
2023-01-05T15:34:45.717Z,98336.72
2023-01-05T15:37:52.206Z,98334.41
2023-01-05T15:40:22.725Z,98328.03
2023-01-05T15:42:54.493Z,98326.84
2023-01-05T15:45:39.327Z,98339.75
2023-01-05T15:48:12.266Z,98340.72
2023-01-05T15:50:52.168Z,98339.06
2023-01-05T15:53:30.237Z,98338.75
2023-01-05T15:55:59.613Z,98335.56
2023-01-05T15:58:43.310Z,98332.53
2023-01-05T16:01:14.449Z,98341.75
2023-01-05T16:03:45.257Z,98344.44
2023-01-05T16:06:27.959Z,98349.13
2023-01-05T16:09:01.110Z,98347.94
2023-01-05T16:11:44.742Z,98356.31
2023-01-05T16:14:40.924Z,98354.84
2023-01-05T16:17:18.465Z,98351.06
2023-01-05T16:19:50.772Z,98354.44
2023-01-05T16:22:28.932Z,98354.09
2023-01-05T16:25:25.187Z,98359.63
2023-01-05T16:27:59.037Z,98356.47
2023-01-05T16:30:34.310Z,98351.44
2023-01-05T16:33:34.413Z,98360.66
2023-01-05T16:36:22.115Z,98358.78
2023-01-05T16:38:49.904Z,98358.31
2023-01-05T16:41:26.458Z,98351.94
2023-01-05T16:44:03.475Z,98361.00
2023-01-05T16:46:40.829Z,98353.94
2023-01-05T16:49:43.705Z,98361.63
2023-01-05T16:52:23.804Z,98360.13
2023-01-05T16:55:35.456Z,98362.28
2023-01-05T16:58:26.280Z,98358.63
2023-01-05T17:00:53.913Z,98350.75
2023-01-05T17:03:32.429Z,98360.97
2023-01-05T17:06:01.109Z,98355.97
2023-01-05T17:08:31.857Z,98354.47
2023-01-05T17:11:01.698Z,98346.59
2023-01-05T17:13:44.483Z,98352.47
2023-01-05T17:16:13.932Z,98358.47
2023-01-05T17:18:41.724Z,98360.34
2023-01-05T17:21:16.421Z,98355.81
2023-01-05T17:23:51.489Z,98351.13
2023-01-05T17:26:27.428Z,98348.44
2023-01-05T17:29:00.546Z,98345.09
2023-01-05T17:31:28.441Z,98349.31
2023-01-05T17:33:56.047Z,98346.63
2023-01-05T17:36:31.747Z,98354.47
2023-01-05T17:39:01.009Z,98348.13
2023-01-05T17:41:28.690Z,98352.66
2023-01-05T17:43:56.363Z,98356.31
2023-01-05T17:46:36.222Z,98355.50
2023-01-05T17:49:03.921Z,98352.47
2023-01-05T17:51:31.485Z,98348.28
2023-01-05T17:53:59.840Z,98351.28
2023-01-05T17:56:27.383Z,98341.75
2023-01-05T17:58:55.165Z,98344.75
2023-01-05T18:01:23.074Z,98347.78
2023-01-05T18:03:50.654Z,98344.59
2023-01-05T18:06:18.269Z,98349.94
2023-01-05T18:08:45.747Z,98349.94
2023-01-05T18:11:14.267Z,98348.44
2023-01-05T18:16:12.368Z,98347.78
2023-01-05T18:18:39.919Z,98341.03
2023-01-05T18:21:07.957Z,98344.75
2023-01-05T18:23:35.547Z,98341.38
2023-01-05T18:26:09.849Z,98334.69
2023-01-05T18:28:38.461Z,98334.19
2023-01-05T18:31:11.829Z,98329.66
2023-01-05T18:33:39.321Z,98330.84
2023-01-05T18:36:10.003Z,98334.50
2023-01-05T18:38:37.707Z,98338.72
2023-01-05T18:41:06.494Z,98347.56
2023-01-05T18:43:35.195Z,98335.84
2023-01-05T18:46:03.550Z,98337.53
2023-01-05T18:48:31.482Z,98339.03
2023-01-05T18:50:59.103Z,98330.03
2023-01-05T18:53:26.645Z,98338.19
2023-01-05T18:55:54.395Z,98331.53
2023-01-05T18:58:22.077Z,98328.00
2023-01-05T19:00:49.694Z,98336.88
2023-01-05T19:03:17.221Z,98328.84
2023-01-05T19:05:44.823Z,98328.16
2023-01-05T19:08:13.749Z,98326.66
2023-01-05T19:10:41.888Z,98326.00
2023-01-05T19:13:09.696Z,98322.66
2023-01-05T19:15:38.381Z,98321.97
2023-01-05T19:18:06.580Z,98317.47
2023-01-05T19:20:34.076Z,98314.78
2023-01-05T19:23:01.650Z,98317.63
2023-01-05T19:25:30.384Z,98318.78
2023-01-05T19:28:01.430Z,98319.09
2023-01-05T19:30:30.541Z,98311.41
2023-01-05T19:32:58.057Z,98318.44
2023-01-05T19:35:25.582Z,98316.44
2023-01-05T19:37:53.063Z,98312.09
2023-01-05T19:40:20.565Z,98304.22
2023-01-05T19:42:48.268Z,98309.75
2023-01-05T19:45:15.770Z,98307.06
2023-01-05T19:47:43.365Z,98306.22
2023-01-05T19:50:12.447Z,98297.69
2023-01-05T19:52:40.161Z,98302.03
2023-01-05T19:55:10.263Z,98302.88
2023-01-05T19:57:37.954Z,98302.38
2023-01-05T20:00:07.330Z,98307.22
2023-01-05T20:02:41.921Z,98309.59
2023-01-05T20:05:09.885Z,98303.94
2023-01-05T20:07:41.410Z,98310.63
2023-01-05T20:10:09.428Z,98307.59
2023-01-05T20:12:36.932Z,98306.25
2023-01-05T20:15:04.961Z,98305.09
2023-01-05T20:17:33.094Z,98303.09
2023-01-05T20:20:00.560Z,98305.63
2023-01-05T20:22:28.131Z,98308.28
2023-01-05T20:24:55.634Z,98311.13
2023-01-05T20:27:23.140Z,98308.63
2023-01-05T20:29:50.636Z,98312.63
2023-01-05T20:32:22.998Z,98301.41
2023-01-05T20:34:59.481Z,98305.59
2023-01-05T20:37:32.415Z,98313.25
2023-01-05T20:40:02.113Z,98321.63
2023-01-05T20:42:30.611Z,98308.09
2023-01-05T20:44:58.321Z,98314.13
2023-01-05T20:47:26.248Z,98304.91
2023-01-05T20:49:54.611Z,98311.75
2023-01-05T20:52:22.148Z,98307.06
2023-01-05T20:54:49.841Z,98310.44
2023-01-05T20:57:17.430Z,98308.59
2023-01-05T20:59:45.076Z,98313.63
2023-01-05T21:02:23.078Z,98315.13
2023-01-05T21:04:52.963Z,98315.47
2023-01-05T21:07:21.215Z,98309.94
2023-01-05T21:09:51.392Z,98314.13
2023-01-05T21:12:20.397Z,98310.31
2023-01-05T21:14:47.946Z,98309.44
2023-01-05T21:17:15.475Z,98298.94
2023-01-05T21:19:42.994Z,98300.75
2023-01-05T21:22:10.517Z,98291.72
2023-01-05T21:24:37.994Z,98293.56
2023-01-05T21:27:05.504Z,98295.59
2023-01-05T21:29:33.287Z,98288.53
2023-01-05T21:32:00.782Z,98278.66
2023-01-05T21:34:28.324Z,98289.56
2023-01-05T21:36:56.048Z,98283.34
2023-01-05T21:39:25.803Z,98291.38
2023-01-05T21:42:12.937Z,98281.84
2023-01-05T21:44:41.173Z,98282.00
2023-01-05T21:47:09.449Z,98278.81
2023-01-05T21:49:36.944Z,98277.50
2023-01-05T21:52:24.243Z,98278.00
2023-01-05T21:55:10.365Z,98268.13
2023-01-05T21:57:37.972Z,98273.63
2023-01-05T22:00:06.870Z,98271.13
2023-01-05T22:02:34.487Z,98271.13
2023-01-05T22:05:02.009Z,98263.75
2023-01-05T22:07:29.536Z,98276.97
2023-01-05T22:09:57.075Z,98273.78
2023-01-05T22:12:24.554Z,98280.47
2023-01-05T22:14:52.038Z,98269.97
2023-01-05T22:17:19.525Z,98268.78
2023-01-05T22:19:47.031Z,98266.59
2023-01-05T22:22:14.704Z,98266.28
2023-01-05T22:24:42.194Z,98272.97
2023-01-05T22:27:09.721Z,98264.78
2023-01-05T22:29:37.212Z,98267.94
2023-01-05T22:32:05.695Z,98267.59
2023-01-05T22:34:33.224Z,98262.94
2023-01-05T22:37:00.764Z,98273.47
2023-01-05T22:39:28.276Z,98267.09
2023-01-05T22:41:55.783Z,98270.44
2023-01-05T22:44:23.287Z,98265.09
2023-01-05T22:46:50.803Z,98277.50
2023-01-05T22:49:18.277Z,98262.59
2023-01-05T22:51:46.287Z,98266.13
2023-01-05T22:54:14.207Z,98265.09
2023-01-05T22:56:41.774Z,98264.94
2023-01-05T22:59:09.260Z,98262.09
2023-01-05T23:01:44.793Z,98263.59
2023-01-05T23:04:13.112Z,98269.63
2023-01-05T23:06:41.911Z,98261.59
2023-01-05T23:09:16.246Z,98257.78
2023-01-05T23:11:46.349Z,98255.91
2023-01-05T23:14:14.961Z,98257.94
2023-01-05T23:16:42.575Z,98254.59
2023-01-05T23:19:10.431Z,98253.56
2023-01-05T23:21:38.536Z,98252.41
2023-01-05T23:24:06.458Z,98254.41
2023-01-05T23:26:34.243Z,98247.91
2023-01-05T23:29:01.848Z,98250.41
2023-01-05T23:31:29.374Z,98256.91
2023-01-05T23:33:57.587Z,98249.19
2023-01-05T23:36:25.369Z,98249.56
2023-01-05T23:38:52.985Z,98252.91
2023-01-05T23:41:20.640Z,98241.00
2023-01-05T23:43:48.270Z,98239.72
2023-01-05T23:46:22.895Z,98237.50
2023-01-05T23:48:51.672Z,98234.00
2023-01-05T23:51:19.760Z,98232.34
2023-01-05T23:53:50.739Z,98230.66
2023-01-05T23:56:23.745Z,98232.34
2023-01-05T23:59:02.768Z,98224.13
